Time;durP1;ratioP1;P1;durP2;ratioP2;P2;SDS_P1;SDS_P2;PMS_P1;PMS_P2;Temp;Humidity;BMP_temperature;BMP_pressure;BME280_temperature;BME280_humidity;BME280_pressure;Samples;Min_cycle;Max_cycle;Signal;HPM_P1;HPM_P2
2023/05/27 00:01:47;;;;;;;18.45;5.72;;;14.70;99.90;;;;;;5051242;28;20068;-75
2023/05/27 00:04:12;;;;;;;19.27;5.53;;;14.70;99.90;;;;;;5051470;28;20021;-75
2023/05/27 00:06:38;;;;;;;16.25;6.30;;;14.60;99.90;;;;;;5050980;28;20159;-75
2023/05/27 00:09:04;;;;;;;21.67;6.15;;;14.60;99.90;;;;;;5036574;28;20104;-75
2023/05/27 00:11:30;;;;;;;18.08;5.60;;;14.60;99.90;;;;;;5071445;28;20465;-75
2023/05/27 00:13:55;;;;;;;27.67;6.15;;;14.60;99.90;;;;;;5070802;28;20071;-75
2023/05/27 00:16:21;;;;;;;16.77;6.00;;;14.60;99.90;;;;;;5070240;28;20060;-75
2023/05/27 00:18:47;;;;;;;17.13;6.53;;;14.60;99.90;;;;;;5051215;28;20028;-76
2023/05/27 00:21:14;;;;;;;25.35;6.55;;;14.60;99.90;;;;;;5051952;28;20021;-76
2023/05/27 00:23:40;;;;;;;18.73;6.40;;;14.60;99.90;;;;;;5050657;28;20033;-75
2023/05/27 00:26:06;;;;;;;16.48;5.93;;;14.50;99.90;;;;;;5051909;28;20487;-76
2023/05/27 00:28:32;;;;;;;22.80;6.25;;;14.50;99.90;;;;;;5062864;28;20141;-75
2023/05/27 00:30:58;;;;;;;19.83;6.00;;;14.50;99.90;;;;;;5070838;28;20397;-75
2023/05/27 00:33:24;;;;;;;20.65;5.95;;;14.50;99.90;;;;;;5071618;28;20111;-76
2023/05/27 00:35:49;;;;;;;16.85;6.63;;;14.40;99.90;;;;;;5071387;28;20426;-76
2023/05/27 00:38:15;;;;;;;26.02;6.63;;;14.30;99.90;;;;;;5071490;28;20028;-75
2023/05/27 00:40:41;;;;;;;20.08;5.90;;;14.30;99.90;;;;;;5073896;28;20095;-75
2023/05/27 00:43:07;;;;;;;20.90;6.22;;;14.20;99.90;;;;;;5075345;28;20043;-76
2023/05/27 00:45:33;;;;;;;26.98;6.78;;;14.20;99.90;;;;;;5074731;28;20033;-75
2023/05/27 00:48:03;;;;;;;18.70;5.80;;;14.30;99.90;;;;;;5066330;28;20073;-75
2023/05/27 00:50:29;;;;;;;20.65;6.10;;;14.20;99.90;;;;;;5054535;28;20116;-76
2023/05/27 00:52:55;;;;;;;26.23;6.55;;;14.20;99.90;;;;;;5057055;28;20033;-76
2023/05/27 00:55:25;;;;;;;16.55;6.60;;;14.20;99.90;;;;;;5077104;28;20380;-76
2023/05/27 00:57:53;;;;;;;21.73;6.43;;;14.20;99.90;;;;;;5090550;28;20058;-75
2023/05/27 01:00:19;;;;;;;19.33;6.68;;;14.10;99.90;;;;;;5074468;28;20122;-76
2023/05/27 01:02:45;;;;;;;14.57;5.72;;;14.00;99.90;;;;;;5057142;28;20106;-76
2023/05/27 01:05:13;;;;;;;24.02;6.05;;;14.00;99.90;;;;;;5064399;28;20029;-76
2023/05/27 01:07:42;;;;;;;21.50;5.95;;;14.00;99.90;;;;;;5070673;28;20054;-75
2023/05/27 01:10:14;;;;;;;20.38;6.70;;;13.90;99.90;;;;;;5074996;28;20034;-75
2023/05/27 01:12:54;;;;;;;16.60;5.82;;;13.90;99.90;;;;;;5073359;28;20047;-76
2023/05/27 01:15:22;;;;;;;16.63;5.65;;;13.90;99.90;;;;;;5056984;28;20067;-76
2023/05/27 01:17:50;;;;;;;30.17;6.82;;;13.90;99.90;;;;;;5061877;28;20071;-75
2023/05/27 01:20:17;;;;;;;22.20;6.28;;;13.90;99.90;;;;;;5054569;28;20029;-75
2023/05/27 01:22:43;;;;;;;17.90;6.40;;;13.80;99.90;;;;;;5054580;28;20350;-75
2023/05/27 01:25:09;;;;;;;22.92;7.07;;;13.80;99.90;;;;;;5054756;28;20102;-75
2023/05/27 01:27:35;;;;;;;23.75;6.78;;;13.80;99.90;;;;;;5054463;28;20426;-76
2023/05/27 01:30:02;;;;;;;19.20;7.03;;;13.70;99.90;;;;;;5054474;28;20072;-75
2023/05/27 01:32:36;;;;;;;18.88;6.15;;;13.80;99.90;;;;;;5054451;28;20103;-76
2023/05/27 01:35:11;;;;;;;17.63;6.75;;;13.60;99.90;;;;;;5053908;28;20496;-76
2023/05/27 01:37:40;;;;;;;17.98;6.70;;;13.60;99.90;;;;;;5071401;28;20020;-76
2023/05/27 01:40:08;;;;;;;20.83;6.25;;;13.70;99.90;;;;;;5074451;28;20024;-75
2023/05/27 01:42:39;;;;;;;23.27;7.05;;;13.70;99.90;;;;;;5073883;28;20036;-76
2023/05/27 01:45:07;;;;;;;25.95;6.80;;;13.60;99.90;;;;;;5072859;28;20029;-76
2023/05/27 01:47:33;;;;;;;22.60;6.93;;;13.50;99.90;;;;;;5056097;28;20082;-76
2023/05/27 01:49:59;;;;;;;24.35;6.45;;;13.50;99.90;;;;;;5073657;28;20086;-75
2023/05/27 01:52:26;;;;;;;24.15;6.30;;;13.50;99.90;;;;;;5065307;28;20037;-76
2023/05/27 01:54:51;;;;;;;23.35;7.45;;;13.40;99.90;;;;;;5053649;28;20021;-76
2023/05/27 01:57:18;;;;;;;22.00;6.65;;;13.40;99.90;;;;;;5053921;28;20138;-76
2023/05/27 01:59:43;;;;;;;17.35;6.60;;;13.30;99.90;;;;;;5053698;28;20021;-76
2023/05/27 02:02:09;;;;;;;18.65;6.38;;;13.30;99.90;;;;;;5053907;28;20381;-76
2023/05/27 02:04:35;;;;;;;19.00;6.32;;;13.30;99.90;;;;;;5053587;28;20028;-76
2023/05/27 02:07:01;;;;;;;23.05;6.45;;;13.30;99.90;;;;;;5068618;28;20036;-76
2023/05/27 02:09:26;;;;;;;16.00;5.78;;;13.30;99.90;;;;;;5073721;28;20473;-76
2023/05/27 02:11:52;;;;;;;19.00;5.60;;;13.20;99.90;;;;;;5073482;28;20056;-76
2023/05/27 02:14:18;;;;;;;19.35;6.63;;;13.20;99.90;;;;;;5054587;28;20029;-76
2023/05/27 02:16:45;;;;;;;21.05;6.35;;;13.20;99.90;;;;;;5057091;28;20021;-75
2023/05/27 02:19:11;;;;;;;20.08;6.95;;;13.20;99.90;;;;;;5072990;28;20107;-76
2023/05/27 02:21:37;;;;;;;13.57;6.07;;;13.10;99.90;;;;;;5072397;28;20108;-76
2023/05/27 02:24:03;;;;;;;20.13;6.38;;;13.20;99.90;;;;;;5052794;28;20033;-76
2023/05/27 02:26:28;;;;;;;17.15;6.25;;;13.10;99.90;;;;;;5052956;28;20028;-76
2023/05/27 02:28:54;;;;;;;18.65;6.25;;;12.90;99.90;;;;;;5053004;28;20025;-76
2023/05/27 02:31:21;;;;;;;20.05;7.25;;;12.90;99.90;;;;;;5053484;28;20122;-76
2023/05/27 02:33:47;;;;;;;24.88;6.55;;;12.90;99.90;;;;;;5052961;28;20036;-76
2023/05/27 02:36:13;;;;;;;24.50;7.25;;;12.90;99.90;;;;;;5059457;28;20021;-76
2023/05/27 02:38:39;;;;;;;15.75;6.35;;;13.00;99.90;;;;;;5073324;28;20029;-76
2023/05/27 02:41:04;;;;;;;22.23;7.40;;;12.90;99.90;;;;;;5055112;28;20026;-76
2023/05/27 02:43:30;;;;;;;14.30;6.32;;;12.90;99.90;;;;;;5072894;28;20039;-76
2023/05/27 02:45:56;;;;;;;25.27;6.95;;;12.90;99.90;;;;;;5072994;28;20036;-76
2023/05/27 02:48:21;;;;;;;18.75;7.10;;;12.80;99.90;;;;;;5072996;28;20445;-76
2023/05/27 02:50:47;;;;;;;23.50;7.22;;;12.70;99.90;;;;;;5072540;28;20388;-76
2023/05/27 02:53:13;;;;;;;25.77;7.13;;;12.70;99.90;;;;;;5072792;28;20067;-75
2023/05/27 02:55:38;;;;;;;17.65;6.47;;;12.60;99.90;;;;;;5072976;28;20477;-75
2023/05/27 02:58:04;;;;;;;18.63;7.35;;;12.60;99.90;;;;;;5072915;28;20032;-75
2023/05/27 03:00:31;;;;;;;19.55;7.18;;;12.50;99.90;;;;;;5072647;28;20028;-75
2023/05/27 03:02:57;;;;;;;20.65;7.05;;;12.50;99.90;;;;;;5071615;28;20202;-75
2023/05/27 03:05:22;;;;;;;25.05;7.38;;;12.40;99.90;;;;;;5072288;28;20132;-76
2023/05/27 03:07:48;;;;;;;23.33;7.07;;;12.40;99.90;;;;;;5071366;28;20036;-76
2023/05/27 03:10:14;;;;;;;17.45;6.80;;;12.40;99.90;;;;;;5067793;28;20071;-75
2023/05/27 03:12:39;;;;;;;19.15;7.32;;;12.40;99.90;;;;;;5050587;28;20114;-76
2023/05/27 03:15:06;;;;;;;23.73;7.30;;;12.40;99.90;;;;;;5052477;28;20040;-75
2023/05/27 03:17:36;;;;;;;22.88;7.50;;;12.40;99.90;;;;;;5034730;28;20028;-75
2023/05/27 03:20:03;;;;;;;22.52;6.47;;;12.20;99.90;;;;;;5051105;28;20465;-76
2023/05/27 03:22:29;;;;;;;21.60;6.97;;;12.20;99.90;;;;;;5052700;28;20035;-76
2023/05/27 03:24:55;;;;;;;20.40;7.15;;;12.20;99.90;;;;;;5052012;28;20013;-75
2023/05/27 03:27:21;;;;;;;26.05;7.07;;;12.20;99.90;;;;;;5052492;28;20086;-75
2023/05/27 03:29:48;;;;;;;19.77;7.78;;;12.20;99.90;;;;;;5052233;28;20108;-76
2023/05/27 03:32:13;;;;;;;24.52;7.50;;;12.10;99.90;;;;;;5054068;28;20028;-75
2023/05/27 03:34:39;;;;;;;22.83;7.47;;;12.10;99.90;;;;;;5071468;28;20032;-76
2023/05/27 03:37:05;;;;;;;21.60;6.72;;;12.10;99.90;;;;;;5072037;28;20032;-76
2023/05/27 03:39:30;;;;;;;17.92;6.53;;;12.20;99.90;;;;;;5054629;28;20556;-75
2023/05/27 03:41:56;;;;;;;25.35;7.70;;;12.10;99.90;;;;;;5071297;28;20021;-75
2023/05/27 03:44:22;;;;;;;22.02;6.82;;;12.00;99.90;;;;;;5072322;28;20107;-76
2023/05/27 03:46:47;;;;;;;23.27;7.80;;;12.00;99.90;;;;;;5072052;28;20029;-75
2023/05/27 03:49:13;;;;;;;20.83;7.28;;;11.90;99.90;;;;;;5072336;28;20111;-75
2023/05/27 03:51:38;;;;;;;17.73;7.05;;;12.00;99.90;;;;;;5071964;28;20036;-75
2023/05/27 03:54:04;;;;;;;17.38;6.90;;;12.00;99.90;;;;;;5054240;28;20038;-75
2023/05/27 03:56:30;;;;;;;23.40;7.65;;;12.00;99.90;;;;;;5072451;28;20074;-75
2023/05/27 03:58:56;;;;;;;23.27;7.22;;;11.90;99.90;;;;;;5059472;28;20032;-75
2023/05/27 04:01:22;;;;;;;29.67;7.28;;;11.90;99.90;;;;;;5051772;28;20489;-75
2023/05/27 04:03:48;;;;;;;23.92;7.88;;;12.00;99.90;;;;;;5051853;28;20029;-74
2023/05/27 04:06:15;;;;;;;20.33;7.72;;;11.90;99.90;;;;;;5052115;28;20021;-74
2023/05/27 04:08:41;;;;;;;25.75;7.15;;;11.90;99.90;;;;;;5051849;28;20045;-75
2023/05/27 04:11:11;;;;;;;19.73;6.45;;;12.00;99.90;;;;;;5052151;28;20473;-74
2023/05/27 04:13:36;;;;;;;18.05;7.00;;;11.90;99.90;;;;;;5051177;28;20501;-75
2023/05/27 04:16:02;;;;;;;18.30;7.05;;;11.90;99.90;;;;;;5037955;28;20021;-74
2023/05/27 04:18:28;;;;;;;22.95;7.90;;;11.90;99.90;;;;;;5056025;28;20033;-75
2023/05/27 04:20:53;;;;;;;31.70;8.15;;;12.00;99.90;;;;;;5055824;28;20078;-75
2023/05/27 04:23:19;;;;;;;16.92;6.88;;;11.90;99.90;;;;;;5061155;28;20083;-75
2023/05/27 04:25:45;;;;;;;30.08;7.32;;;11.90;99.90;;;;;;5076104;28;20066;-75
2023/05/27 04:28:11;;;;;;;21.40;7.30;;;11.90;99.90;;;;;;5075760;28;20028;-75
2023/05/27 04:30:39;;;;;;;43.80;8.68;;;11.90;99.90;;;;;;5075556;28;20114;-75
2023/05/27 04:33:07;;;;;;;19.33;7.30;;;11.90;99.90;;;;;;5067399;28;20033;-75
2023/05/27 04:35:33;;;;;;;22.67;7.28;;;11.90;99.90;;;;;;5062839;28;20016;-74
2023/05/27 04:38:00;;;;;;;24.63;7.93;;;12.00;99.90;;;;;;5067449;28;20484;-75
2023/05/27 04:40:28;;;;;;;22.88;6.78;;;12.00;99.90;;;;;;5058351;28;20032;-75
2023/05/27 04:42:55;;;;;;;27.70;6.88;;;11.90;99.90;;;;;;5055316;28;20036;-74
2023/05/27 04:45:20;;;;;;;22.48;7.80;;;12.00;99.90;;;;;;5055029;28;20032;-75
2023/05/27 04:47:46;;;;;;;19.55;7.22;;;12.00;99.90;;;;;;5055386;28;20021;-75
2023/05/27 04:50:13;;;;;;;22.58;7.70;;;12.00;99.90;;;;;;5054859;28;20025;-77
2023/05/27 04:52:40;;;;;;;25.75;8.38;;;11.90;99.90;;;;;;5054394;28;20037;-75
2023/05/27 04:55:08;;;;;;;25.67;8.13;;;11.90;99.90;;;;;;5054996;28;20032;-74
2023/05/27 04:57:34;;;;;;;20.27;7.28;;;11.90;99.90;;;;;;5054141;28;20564;-75
2023/05/27 05:02:34;;;;;;;28.92;8.07;;;12.00;99.90;;;;;;5054093;28;20135;-75
2023/05/27 05:05:08;;;;;;;24.02;7.70;;;12.20;99.90;;;;;;5054995;28;20021;-75
2023/05/27 05:07:37;;;;;;;21.25;7.88;;;12.20;99.90;;;;;;5054167;28;20041;-75
2023/05/27 05:10:04;;;;;;;22.40;7.57;;;12.30;99.90;;;;;;5054586;28;20013;-75
2023/05/27 05:12:30;;;;;;;23.35;7.93;;;12.20;99.90;;;;;;5054701;28;20041;-75
2023/05/27 05:14:55;;;;;;;25.42;8.05;;;12.20;99.90;;;;;;5053555;28;20523;-75
2023/05/27 05:17:24;;;;;;;22.42;9.15;;;12.30;99.90;;;;;;5055131;28;20031;-75
2023/05/27 05:19:50;;;;;;;22.15;8.18;;;12.20;99.90;;;;;;5054785;28;20021;-75
2023/05/27 05:22:18;;;;;;;16.50;8.00;;;12.20;99.90;;;;;;5054557;28;20484;-76
2023/05/27 05:24:47;;;;;;;25.45;8.73;;;12.20;99.90;;;;;;5054385;28;20056;-76
2023/05/27 05:27:13;;;;;;;23.40;8.23;;;12.20;99.90;;;;;;5053242;28;20049;-76
2023/05/27 05:29:39;;;;;;;23.77;7.90;;;12.30;99.90;;;;;;5066221;28;20063;-76
2023/05/27 05:32:05;;;;;;;22.52;8.90;;;12.20;99.90;;;;;;5079017;28;20044;-76
2023/05/27 05:34:31;;;;;;;22.20;9.25;;;12.20;99.90;;;;;;5060206;28;20029;-76
2023/05/27 05:36:56;;;;;;;22.17;8.63;;;12.30;99.90;;;;;;5069432;28;20036;-75
2023/05/27 05:39:22;;;;;;;41.25;9.02;;;12.20;99.90;;;;;;5036554;28;20017;-75
2023/05/27 05:41:48;;;;;;;26.63;9.10;;;12.30;99.90;;;;;;5054178;28;20108;-75
2023/05/27 05:44:15;;;;;;;31.60;8.93;;;12.20;99.90;;;;;;5072927;28;20159;-75
2023/05/27 05:46:41;;;;;;;25.73;8.52;;;12.20;99.90;;;;;;5055499;28;20069;-75
2023/05/27 05:49:06;;;;;;;25.58;8.20;;;12.20;99.90;;;;;;5074253;28;20111;-75
2023/05/27 05:51:32;;;;;;;24.48;8.85;;;12.30;99.90;;;;;;5073893;28;20020;-76
2023/05/27 05:53:58;;;;;;;27.42;9.07;;;12.40;99.90;;;;;;5073914;28;20354;-75
2023/05/27 05:56:25;;;;;;;25.83;8.32;;;12.40;99.90;;;;;;5073279;28;20507;-75
2023/05/27 05:58:51;;;;;;;23.45;8.00;;;12.40;99.90;;;;;;5073327;28;20027;-75
2023/05/27 06:01:17;;;;;;;24.42;8.88;;;12.20;99.90;;;;;;5064302;28;20116;-75
2023/05/27 06:03:43;;;;;;;22.77;8.85;;;12.10;99.90;;;;;;5054005;28;20438;-75
2023/05/27 06:06:09;;;;;;;25.60;8.70;;;12.20;99.90;;;;;;5053629;28;20032;-75
2023/05/27 06:08:34;;;;;;;28.88;8.68;;;12.20;99.90;;;;;;5053907;28;20055;-75
2023/05/27 06:11:00;;;;;;;26.15;8.52;;;12.20;99.90;;;;;;5053586;28;20025;-74
2023/05/27 06:13:25;;;;;;;18.75;8.48;;;12.20;99.90;;;;;;5053544;28;20550;-75
2023/05/27 06:15:51;;;;;;;22.02;8.48;;;12.30;99.90;;;;;;5053702;28;20033;-75
2023/05/27 06:18:17;;;;;;;27.20;8.82;;;12.40;99.90;;;;;;5062150;28;20452;-74
2023/05/27 06:20:42;;;;;;;25.67;8.90;;;12.30;99.90;;;;;;5052576;28;20044;-75
2023/05/27 06:23:08;;;;;;;25.88;8.93;;;12.40;99.90;;;;;;5053224;28;20032;-75
2023/05/27 06:25:34;;;;;;;21.85;9.48;;;12.60;99.90;;;;;;5052552;28;20492;-75
2023/05/27 06:28:00;;;;;;;23.08;8.60;;;12.60;99.90;;;;;;5052448;28;20032;-76
2023/05/27 06:30:25;;;;;;;23.40;9.35;;;12.60;99.90;;;;;;5053319;28;20025;-76
2023/05/27 06:32:51;;;;;;;27.08;8.70;;;12.60;99.90;;;;;;5052650;28;20087;-75
2023/05/27 06:35:18;;;;;;;28.67;8.27;;;12.60;99.90;;;;;;5035385;28;20028;-76
2023/05/27 06:37:43;;;;;;;27.58;9.38;;;12.60;99.90;;;;;;5072256;28;20028;-76
2023/05/27 06:40:10;;;;;;;24.33;10.02;;;12.60;99.90;;;;;;5055307;28;20028;-76
2023/05/27 06:42:36;;;;;;;22.90;8.98;;;12.60;99.90;;;;;;5073128;28;20031;-76
2023/05/27 06:45:03;;;;;;;28.33;9.10;;;12.70;99.90;;;;;;5060146;28;20031;-77
2023/05/27 06:47:28;;;;;;;25.27;9.35;;;12.70;99.90;;;;;;5065162;28;20041;-76
2023/05/27 06:49:54;;;;;;;30.33;9.80;;;13.00;99.90;;;;;;5069282;28;20033;-76
2023/05/27 06:52:20;;;;;;;22.92;9.10;;;13.00;99.90;;;;;;5066137;28;20041;-76
2023/05/27 06:54:46;;;;;;;30.67;9.30;;;13.30;99.90;;;;;;5072885;28;20051;-76
2023/05/27 06:57:12;;;;;;;30.35;9.27;;;13.40;99.90;;;;;;5052397;28;20492;-76
2023/05/27 06:59:39;;;;;;;22.05;9.13;;;13.40;99.90;;;;;;5052498;28;20118;-77
2023/05/27 07:02:05;;;;;;;20.60;8.93;;;13.50;99.90;;;;;;5052342;28;20535;-77
2023/05/27 07:04:31;;;;;;;27.13;9.23;;;13.70;99.90;;;;;;5052072;28;20406;-76
2023/05/27 07:06:57;;;;;;;24.08;9.00;;;13.80;99.90;;;;;;5053094;28;20039;-76
2023/05/27 07:09:22;;;;;;;23.50;9.38;;;14.00;99.90;;;;;;5055494;28;20458;-77
2023/05/27 07:11:48;;;;;;;25.00;8.85;;;14.10;99.90;;;;;;5072600;28;20435;-76
2023/05/27 07:14:14;;;;;;;26.25;8.70;;;14.20;99.90;;;;;;5071235;28;20036;-77
2023/05/27 07:16:40;;;;;;;22.60;9.20;;;14.30;99.90;;;;;;5072334;28;20078;-76
2023/05/27 07:19:06;;;;;;;23.10;9.30;;;14.40;99.90;;;;;;5072851;28;20025;-76
2023/05/27 07:21:32;;;;;;;23.05;8.70;;;14.50;99.90;;;;;;5072430;28;20073;-76
2023/05/27 07:24:02;;;;;;;24.40;9.57;;;14.40;99.90;;;;;;5072283;28;20492;-76
2023/05/27 07:26:31;;;;;;;25.73;9.48;;;14.40;99.90;;;;;;5068957;28;20016;-76
2023/05/27 07:28:59;;;;;;;22.45;8.40;;;14.60;99.90;;;;;;5071579;28;20028;-76
2023/05/27 07:31:26;;;;;;;26.92;9.20;;;14.70;99.90;;;;;;5072309;28;20027;-76
2023/05/27 07:33:52;;;;;;;26.42;9.80;;;14.90;99.90;;;;;;5059805;28;20653;-76
2023/05/27 07:36:17;;;;;;;23.15;8.65;;;15.00;99.90;;;;;;5065623;28;20104;-76
2023/05/27 07:38:43;;;;;;;31.27;8.85;;;15.10;99.90;;;;;;5070722;28;20071;-77
2023/05/27 07:41:10;;;;;;;24.92;10.55;;;15.10;99.90;;;;;;5072442;28;20028;-76
2023/05/27 07:43:36;;;;;;;24.50;9.80;;;15.10;99.90;;;;;;5061490;28;20045;-77
2023/05/27 07:46:02;;;;;;;24.50;9.55;;;15.30;99.90;;;;;;5058298;28;20520;-76
2023/05/27 07:48:28;;;;;;;25.85;9.60;;;15.30;99.90;;;;;;5051174;28;20049;-77
2023/05/27 07:50:54;;;;;;;32.35;9.48;;;15.30;99.90;;;;;;5049857;28;20064;-76
2023/05/27 07:53:21;;;;;;;24.60;8.98;;;15.40;99.90;;;;;;5061743;28;20021;-76
2023/05/27 07:55:46;;;;;;;26.45;8.63;;;15.70;99.90;;;;;;5061070;28;20023;-76
2023/05/27 07:58:12;;;;;;;22.83;10.57;;;15.80;99.90;;;;;;5062470;28;20091;-77
2023/05/27 08:00:38;;;;;;;22.05;8.55;;;15.90;99.90;;;;;;5062000;28;20047;-76
2023/05/27 08:03:04;;;;;;;33.65;10.05;;;16.00;99.90;;;;;;5061002;28;20477;-77
2023/05/27 08:05:30;;;;;;;24.40;8.65;;;16.00;99.90;;;;;;5062876;28;20032;-78
2023/05/27 08:07:55;;;;;;;29.58;10.30;;;16.30;99.90;;;;;;5061136;28;20428;-77
2023/05/27 08:10:21;;;;;;;26.13;9.70;;;16.40;99.90;;;;;;5061374;28;20052;-77
2023/05/27 08:12:47;;;;;;;24.60;9.40;;;16.60;99.90;;;;;;5062082;28;20115;-77
2023/05/27 08:15:13;;;;;;;29.15;9.43;;;16.70;99.90;;;;;;5059889;28;20401;-77
2023/05/27 08:17:39;;;;;;;22.10;9.13;;;16.90;99.90;;;;;;5052623;28;20111;-76
2023/05/27 08:20:05;;;;;;;21.75;9.95;;;17.00;99.90;;;;;;5056697;28;20462;-76
2023/05/27 08:22:32;;;;;;;24.60;10.10;;;17.00;99.90;;;;;;5066276;28;20021;-75
2023/05/27 08:24:57;;;;;;;24.65;9.48;;;17.00;99.90;;;;;;5072018;28;20087;-75
2023/05/27 08:27:52;;;;;;;25.42;9.05;;;17.20;99.90;;;;;;5069285;28;20039;-77
2023/05/27 08:30:18;;;;;;;23.75;9.25;;;17.40;99.90;;;;;;5057075;28;20025;-78
2023/05/27 08:32:44;;;;;;;21.02;9.30;;;17.50;99.90;;;;;;5064099;28;20098;-77
2023/05/27 08:35:13;;;;;;;25.00;9.18;;;17.70;99.90;;;;;;5071504;28;20021;-77
2023/05/27 08:37:40;;;;;;;24.75;9.05;;;17.70;99.90;;;;;;5071539;28;20036;-78
2023/05/27 08:40:12;;;;;;;26.15;9.57;;;17.70;99.90;;;;;;5071753;28;20089;-78
2023/05/27 08:42:39;;;;;;;25.70;9.15;;;17.90;99.90;;;;;;5071390;28;20110;-78
2023/05/27 08:45:05;;;;;;;31.15;10.07;;;18.20;99.90;;;;;;5068288;28;20036;-78
2023/05/27 08:47:31;;;;;;;24.58;8.93;;;18.20;99.90;;;;;;5071723;28;20400;-79
2023/05/27 08:50:00;;;;;;;20.52;7.60;;;18.30;99.90;;;;;;5067670;28;20017;-80
2023/05/27 08:52:28;;;;;;;28.67;8.95;;;18.40;99.90;;;;;;5071531;28;20068;-79
2023/05/27 08:54:56;;;;;;;23.00;8.95;;;18.70;99.90;;;;;;5065122;28;20023;-79
2023/05/27 08:57:26;;;;;;;18.33;7.90;;;18.80;99.90;;;;;;5071615;28;20032;-80
2023/05/27 08:59:52;;;;;;;18.02;8.50;;;18.90;99.90;;;;;;5070973;28;20009;-78
2023/05/27 09:02:20;;;;;;;20.67;8.80;;;18.90;99.90;;;;;;5058619;28;20048;-76
2023/05/27 09:04:46;;;;;;;19.60;8.77;;;18.90;99.90;;;;;;5056964;28;20103;-76
2023/05/27 09:07:12;;;;;;;22.38;9.68;;;18.80;99.90;;;;;;5063638;28;20027;-78
2023/05/27 09:09:40;;;;;;;23.13;8.68;;;19.00;99.90;;;;;;5060156;28;20049;-78
2023/05/27 09:12:08;;;;;;;26.10;9.05;;;19.10;99.90;;;;;;5062468;28;20493;-77
2023/05/27 09:14:37;;;;;;;24.05;9.00;;;19.30;99.90;;;;;;5058905;28;20511;-76
2023/05/27 09:17:08;;;;;;;21.55;8.10;;;19.50;99.90;;;;;;5074056;28;20033;-77
2023/05/27 09:19:34;;;;;;;25.25;8.40;;;19.70;99.90;;;;;;5071075;28;20017;-77
2023/05/27 09:22:00;;;;;;;19.45;8.32;;;19.80;99.90;;;;;;5063304;28;20096;-78
2023/05/27 09:24:26;;;;;;;18.38;8.32;;;19.80;99.90;;;;;;5063662;28;20013;-78
2023/05/27 09:26:54;;;;;;;20.45;9.13;;;19.90;99.90;;;;;;5064884;28;20066;-76
2023/05/27 09:29:22;;;;;;;24.05;9.35;;;20.10;99.90;;;;;;5074269;28;20064;-77
2023/05/27 09:31:48;;;;;;;24.42;9.07;;;20.20;99.90;;;;;;5074825;28;20034;-76
2023/05/27 09:34:17;;;;;;;23.13;8.57;;;20.20;99.90;;;;;;5074160;28;20099;-77
2023/05/27 09:36:47;;;;;;;24.15;7.97;;;20.40;99.90;;;;;;5073711;28;20473;-77
2023/05/27 09:39:14;;;;;;;27.50;8.38;;;20.50;99.90;;;;;;5074515;28;20021;-77
2023/05/27 09:41:41;;;;;;;23.83;8.30;;;20.70;99.90;;;;;;5065119;28;20083;-78
2023/05/27 09:44:08;;;;;;;26.05;8.25;;;20.60;99.90;;;;;;5055623;28;20138;-77
2023/05/27 09:46:34;;;;;;;25.48;8.38;;;20.60;99.90;;;;;;5046241;28;20021;-78
2023/05/27 09:49:01;;;;;;;27.75;8.10;;;20.90;99.90;;;;;;5069028;28;20472;-78
2023/05/27 09:51:27;;;;;;;20.77;8.10;;;20.90;99.90;;;;;;5065103;28;20021;-77
2023/05/27 09:53:57;;;;;;;26.48;8.18;;;21.00;99.90;;;;;;5062834;28;20055;-78
2023/05/27 09:56:27;;;;;;;22.27;8.00;;;21.10;99.90;;;;;;5062552;28;20158;-78
2023/05/27 09:58:57;;;;;;;23.60;8.68;;;21.20;99.90;;;;;;5062297;28;20029;-79
2023/05/27 10:01:30;;;;;;;15.57;6.90;;;21.30;99.90;;;;;;5063275;28;20020;-78
2023/05/27 10:03:59;;;;;;;20.98;8.63;;;21.40;99.90;;;;;;5063755;28;20043;-78
2023/05/27 10:06:29;;;;;;;16.48;7.22;;;21.70;99.90;;;;;;5051736;28;20025;-78
2023/05/27 10:08:56;;;;;;;19.23;7.70;;;21.80;99.90;;;;;;5069323;28;20026;-77
2023/05/27 10:11:22;;;;;;;26.58;8.80;;;21.80;99.90;;;;;;5085228;28;20021;-78
2023/05/27 10:13:49;;;;;;;19.75;7.30;;;21.90;99.90;;;;;;5066410;28;20436;-78
2023/05/27 10:16:27;;;;;;;17.83;6.75;;;22.00;99.90;;;;;;5053591;28;20381;-77
2023/05/27 10:18:55;;;;;;;20.40;8.18;;;22.00;99.90;;;;;;5053425;28;20025;-78
2023/05/27 10:21:23;;;;;;;17.45;7.50;;;22.10;99.90;;;;;;5041264;28;20541;-77
2023/05/27 10:24:03;;;;;;;14.00;7.75;;;22.30;99.90;;;;;;5070047;28;20103;-78
2023/05/27 10:26:36;;;;;;;18.33;7.40;;;22.50;99.90;;;;;;5051411;28;20048;-77
2023/05/27 10:29:07;;;;;;;19.33;8.48;;;22.50;99.90;;;;;;5053296;28;20021;-78
2023/05/27 10:31:33;;;;;;;20.95;7.45;;;22.50;99.90;;;;;;5052514;28;20017;-78
2023/05/27 10:33:59;;;;;;;18.67;7.40;;;22.70;99.90;;;;;;5052454;28;20032;-77
2023/05/27 10:36:31;;;;;;;18.10;7.32;;;23.00;99.90;;;;;;5060976;28;20027;-78
2023/05/27 10:39:13;;;;;;;14.45;6.95;;;23.10;99.90;;;;;;5063069;28;20021;-76
2023/05/27 10:41:51;;;;;;;19.15;6.93;;;23.10;99.90;;;;;;5051881;28;20021;-77
2023/05/27 10:44:32;;;;;;;17.92;6.78;;;23.20;99.90;;;;;;5061038;28;20024;-77
2023/05/27 10:47:15;;;;;;;15.27;6.50;;;23.50;99.90;;;;;;5042242;28;20108;-76
2023/05/27 10:49:46;;;;;;;17.98;6.53;;;23.50;99.90;;;;;;5045640;28;20021;-77
2023/05/27 10:52:20;;;;;;;16.50;5.85;;;23.40;99.90;;;;;;5043894;28;20461;-76
2023/05/27 10:54:57;;;;;;;16.33;6.88;;;23.40;99.90;;;;;;5053634;28;20070;-77
2023/05/27 10:57:24;;;;;;;16.05;6.85;;;23.40;99.90;;;;;;5053206;28;20059;-76
2023/05/27 10:59:54;;;;;;;17.13;6.72;;;23.30;99.90;;;;;;5072756;28;20031;-76
2023/05/27 11:02:20;;;;;;;18.42;6.38;;;23.60;99.90;;;;;;5071506;28;20070;-76
2023/05/27 11:04:48;;;;;;;14.57;6.65;;;23.70;99.90;;;;;;5072730;28;20012;-77
2023/05/27 11:07:18;;;;;;;18.08;6.88;;;23.70;99.90;;;;;;5054575;28;20412;-77
2023/05/27 11:09:49;;;;;;;16.85;6.35;;;23.90;99.90;;;;;;5072558;28;20101;-77
2023/05/27 11:12:16;;;;;;;17.60;6.35;;;24.10;99.90;;;;;;5076324;28;20074;-76
2023/05/27 11:14:43;;;;;;;18.40;6.25;;;23.90;99.70;;;;;;5059771;28;20570;-78
2023/05/27 11:17:12;;;;;;;19.23;6.90;;;24.00;99.80;;;;;;5072255;28;20131;-76
2023/05/27 11:19:39;;;;;;;16.95;6.68;;;23.80;98.40;;;;;;5072625;28;20075;-79
2023/05/27 11:22:06;;;;;;;14.27;6.05;;;23.90;99.10;;;;;;5053131;28;20058;-78
2023/05/27 11:24:31;;;;;;;21.40;7.35;;;23.90;99.90;;;;;;5050905;28;20484;-77
2023/05/27 11:26:57;;;;;;;16.05;6.22;;;24.10;99.90;;;;;;5067970;28;20017;-76
2023/05/27 11:29:23;;;;;;;18.00;6.95;;;24.50;99.90;;;;;;5071822;28;20032;-75
2023/05/27 11:31:49;;;;;;;17.33;5.18;;;24.60;97.90;;;;;;5057858;28;20039;-75
2023/05/27 11:34:16;;;;;;;19.23;6.55;;;24.50;97.60;;;;;;5068501;28;20031;-76
2023/05/27 11:36:45;;;;;;;12.93;5.80;;;24.50;97.40;;;;;;5072280;28;20036;-75
2023/05/27 11:39:13;;;;;;;15.63;5.50;;;24.60;96.80;;;;;;5059885;28;20025;-75
2023/05/27 11:41:55;;;;;;;13.70;5.70;;;24.60;98.40;;;;;;5058824;28;20048;-75
2023/05/27 11:44:25;;;;;;;16.50;6.30;;;24.90;97.40;;;;;;5060260;28;20032;-76
2023/05/27 11:46:52;;;;;;;15.00;6.53;;;25.00;96.40;;;;;;5051008;28;20098;-76
2023/05/27 11:49:19;;;;;;;16.33;5.07;;;25.20;94.70;;;;;;5034328;28;20027;-77
2023/05/27 11:51:49;;;;;;;18.73;6.10;;;25.20;93.80;;;;;;5050624;28;20024;-77
2023/05/27 11:54:28;;;;;;;16.10;5.35;;;25.30;98.20;;;;;;5051695;28;20116;-77
2023/05/27 11:56:54;;;;;;;21.05;6.05;;;25.20;95.90;;;;;;5055501;28;20025;-76
2023/05/27 11:59:22;;;;;;;21.63;6.45;;;25.40;98.60;;;;;;5071672;28;20032;-76
2023/05/27 12:01:49;;;;;;;14.23;5.88;;;25.40;95.40;;;;;;5072155;28;20569;-76
2023/05/27 12:04:15;;;;;;;16.80;6.90;;;25.40;94.50;;;;;;5071623;28;20103;-75
2023/05/27 12:06:42;;;;;;;15.10;6.13;;;25.60;96.70;;;;;;5071786;28;20017;-75
2023/05/27 12:09:08;;;;;;;17.13;5.60;;;25.60;97.40;;;;;;5071634;28;20036;-76
2023/05/27 12:11:34;;;;;;;18.48;5.60;;;25.50;94.90;;;;;;5071108;28;20021;-75
2023/05/27 12:14:01;;;;;;;15.32;5.82;;;25.40;94.90;;;;;;5062682;28;20088;-75
2023/05/27 12:16:27;;;;;;;15.45;6.03;;;25.30;94.30;;;;;;5052030;28;20040;-76
2023/05/27 12:18:53;;;;;;;17.85;5.90;;;25.10;93.10;;;;;;5051868;28;20087;-75
2023/05/27 12:21:19;;;;;;;19.55;5.82;;;25.10;93.40;;;;;;5063991;28;20021;-76
2023/05/27 12:23:45;;;;;;;17.40;5.00;;;25.00;94.50;;;;;;5071337;28;20416;-75
2023/05/27 12:26:13;;;;;;;14.98;5.00;;;25.20;95.20;;;;;;5070059;28;20123;-75
2023/05/27 12:28:39;;;;;;;14.18;5.68;;;25.40;96.70;;;;;;5070030;28;20024;-77
2023/05/27 12:31:05;;;;;;;14.95;5.25;;;25.30;95.00;;;;;;5064818;28;20029;-77
2023/05/27 12:33:31;;;;;;;15.43;5.60;;;25.30;94.00;;;;;;5051475;28;20135;-76
2023/05/27 12:35:58;;;;;;;17.23;5.43;;;25.30;94.50;;;;;;5062013;28;20025;-75
2023/05/27 12:38:24;;;;;;;18.27;5.68;;;25.10;94.50;;;;;;5070889;28;20016;-74